Time;durP1;ratioP1;P1;durP2;ratioP2;P2;SDS_P1;SDS_P2;PMS_P1;PMS_P2;Temp;Humidity;BMP_temperature;BMP_pressure;BME280_temperature;BME280_humidity;BME280_pressure;Samples;Min_cycle;Max_cycle;Signal;HPM_P1;HPM_P2
2023/04/11 00:01:55;;;;;;;;;0.00;0.00;;;;;19.83;39.04;100896.03;5077000;27;45438;-69
2023/04/11 00:04:21;;;;;;;;;0.25;0.25;;;;;19.82;39.07;100924.41;5059354;28;45624;-69
2023/04/11 00:06:47;;;;;;;;;0.00;0.00;;;;;19.86;38.93;100939.19;5066097;27;45461;-69
2023/04/11 00:09:12;;;;;;;;;1.00;1.00;;;;;19.88;38.76;100939.09;5075716;27;46134;-69
2023/04/11 00:11:38;;;;;;;;;2.00;0.75;;;;;19.87;38.71;100932.09;5064925;28;45356;-69
2023/04/11 00:14:04;;;;;;;;;0.75;0.25;;;;;19.87;39.08;100926.78;5078428;27;45236;-68
2023/04/11 00:16:32;;;;;;;;;1.00;1.00;;;;;19.87;39.08;100938.25;5074733;27;45269;-69
2023/04/11 00:18:58;;;;;;;;;1.00;0.00;;;;;19.85;38.64;100932.19;5076311;27;45363;-68
2023/04/11 00:21:23;;;;;;;;;1.00;0.50;;;;;19.87;38.88;100938.25;5094033;27;45287;-69
2023/04/11 00:23:48;;;;;;;;;0.00;0.00;;;;;19.87;38.93;100943.56;5081476;27;45650;-68
2023/04/11 00:26:14;;;;;;;;;4.00;0.75;;;;;19.88;38.78;100945.28;5076491;27;45488;-69
2023/04/11 00:28:39;;;;;;;;;1.00;1.00;;;;;19.86;38.40;100928.56;5085071;27;45475;-69
2023/04/11 00:31:05;;;;;;;;;1.00;0.00;;;;;19.89;39.11;100931.03;5060656;28;63530;-69
2023/04/11 00:33:31;;;;;;;;;1.25;0.00;;;;;19.87;38.68;100922.31;5068501;27;45368;-69
2023/04/11 00:35:56;;;;;;;;;1.00;1.00;;;;;19.90;38.78;100924.78;5080546;28;45697;-69
2023/04/11 00:38:21;;;;;;;;;0.00;0.00;;;;;19.91;38.51;100925.63;5073492;28;46168;-69
2023/04/11 00:40:47;;;;;;;;;0.00;0.00;;;;;19.94;39.09;100938.72;5060742;27;67082;-68
2023/04/11 00:43:12;;;;;;;;;1.00;1.00;;;;;19.92;38.74;100945.94;5090198;27;45369;-69
2023/04/11 00:45:37;;;;;;;;;2.00;0.50;;;;;19.95;39.01;100948.38;5073837;27;45994;-69
2023/04/11 00:48:03;;;;;;;;;3.00;1.00;;;;;19.95;38.98;100945.72;5068617;27;49646;-69
2023/04/11 00:50:29;;;;;;;;;0.00;0.00;;;;;19.95;38.85;100934.25;5080370;27;45740;-68
2023/04/11 00:52:55;;;;;;;;;0.00;0.00;;;;;19.95;38.56;100936.91;5078240;27;57611;-69
2023/04/11 00:55:21;;;;;;;;;1.75;1.00;;;;;19.97;38.62;100954.44;5064072;28;45657;-69
2023/04/11 00:57:46;;;;;;;;;2.00;0.00;;;;;19.99;39.04;100949.91;5095172;27;73916;-69
2023/04/11 01:00:12;;;;;;;;;0.00;0.00;;;;;19.95;38.40;100951.03;5063394;27;50158;-69
2023/04/11 01:02:41;;;;;;;;;0.00;0.00;;;;;19.99;38.57;100946.38;5079912;27;45344;-69
2023/04/11 01:05:08;;;;;;;;;1.50;1.00;;;;;19.97;38.79;100940.31;5073235;27;45565;-69
2023/04/11 01:07:34;;;;;;;;;0.00;0.00;;;;;20.00;38.81;100953.41;5072709;27;45244;-69
2023/04/11 01:10:01;;;;;;;;;0.25;0.25;;;;;19.98;38.81;100936.72;5060978;28;45302;-69
2023/04/11 01:12:28;;;;;;;;;0.75;0.00;;;;;20.00;38.48;100946.28;5101550;27;45442;-69
2023/04/11 01:14:54;;;;;;;;;1.50;0.00;;;;;19.98;38.70;100944.69;5080787;27;45318;-69
2023/04/11 01:17:20;;;;;;;;;0.00;0.00;;;;;19.98;38.82;100945.53;5060194;28;47047;-69
2023/04/11 01:19:46;;;;;;;;;1.75;1.00;;;;;20.01;38.72;100960.41;5082334;27;45661;-69
2023/04/11 01:22:13;;;;;;;;;0.00;0.00;;;;;19.97;38.74;100975.69;5084201;27;45270;-68
2023/04/11 01:24:39;;;;;;;;;0.50;0.00;;;;;19.98;38.68;100972.09;5061275;27;45904;-69
2023/04/11 01:27:04;;;;;;;;;0.00;0.00;;;;;20.00;38.58;100982.63;5072907;28;47826;-69
2023/04/11 01:29:30;;;;;;;;;0.00;0.00;;;;;19.98;38.81;100977.41;5082099;27;45438;-69
2023/04/11 01:31:55;;;;;;;;;0.00;0.00;;;;;19.99;38.79;100968.50;5075483;27;45194;-69
2023/04/11 01:34:21;;;;;;;;;0.00;0.00;;;;;20.00;38.66;100956.06;5075630;27;66682;-69
2023/04/11 01:36:47;;;;;;;;;0.00;0.00;;;;;19.93;38.47;100950.28;5071380;28;59472;-69
2023/04/11 01:39:12;;;;;;;;;1.00;1.00;;;;;19.97;38.49;100973.03;5077246;28;45452;-68
2023/04/11 01:41:38;;;;;;;;;0.00;0.00;;;;;19.98;38.63;100974.75;5079149;27;51471;-69
2023/04/11 01:44:04;;;;;;;;;0.50;0.00;;;;;19.96;38.36;100974.00;5062633;27;45315;-69
2023/04/11 01:46:30;;;;;;;;;1.00;0.00;;;;;19.97;38.17;100978.34;5070021;27;47168;-69
2023/04/11 01:48:56;;;;;;;;;2.00;0.00;;;;;19.95;38.40;100984.72;5065276;27;45347;-69
2023/04/11 01:51:21;;;;;;;;;1.00;0.00;;;;;19.96;38.57;100979.31;5076805;27;45487;-68
2023/04/11 01:53:47;;;;;;;;;0.00;0.00;;;;;19.96;38.21;100983.78;5074985;27;45422;-69
2023/04/11 01:56:13;;;;;;;;;1.00;1.00;;;;;19.98;38.27;101005.78;5065065;28;45332;-69
2023/04/11 01:58:38;;;;;;;;;0.75;0.75;;;;;19.96;38.72;101003.22;5080123;27;45440;-69
2023/04/11 02:01:04;;;;;;;;;2.00;0.00;;;;;20.00;38.07;100995.91;5066691;27;45444;-69
2023/04/11 02:03:30;;;;;;;;;1.00;0.00;;;;;19.99;38.15;100997.72;5073984;27;45241;-69
2023/04/11 02:05:55;;;;;;;;;0.00;0.00;;;;;20.02;38.23;101015.25;5078303;27;48418;-69
2023/04/11 02:08:20;;;;;;;;;0.00;0.00;;;;;20.01;38.21;101016.19;5096487;27;45196;-68
2023/04/11 02:10:46;;;;;;;;;0.00;0.00;;;;;20.02;38.15;101005.47;5094365;27;60010;-69
2023/04/11 02:13:11;;;;;;;;;0.00;0.00;;;;;20.01;38.36;101011.75;5075727;28;71981;-69
2023/04/11 02:15:36;;;;;;;;;0.00;0.00;;;;;20.04;38.33;101002.72;5076533;27;45373;-69
2023/04/11 02:18:02;;;;;;;;;0.00;0.00;;;;;20.02;38.16;101007.28;5069676;27;55514;-69
2023/04/11 02:20:27;;;;;;;;;0.25;0.00;;;;;20.03;37.97;100998.38;5078036;27;59725;-69
2023/04/11 02:22:53;;;;;;;;;0.00;0.00;;;;;20.03;38.35;101004.53;5096565;27;45299;-70
2023/04/11 02:25:18;;;;;;;;;0.00;0.00;;;;;20.04;38.28;101010.69;5065482;27;47647;-69
2023/04/11 02:27:43;;;;;;;;;1.25;0.00;;;;;20.04;38.37;100987.66;5080706;27;68617;-69
2023/04/11 02:30:09;;;;;;;;;0.25;0.00;;;;;20.04;37.96;100992.97;5068309;28;66777;-69
2023/04/11 02:32:36;;;;;;;;;0.00;0.00;;;;;20.06;38.23;101000.81;5075469;27;45432;-69
2023/04/11 02:35:03;;;;;;;;;3.25;0.25;;;;;20.04;38.23;101002.72;5076707;27;46086;-69
2023/04/11 02:37:29;;;;;;;;;0.50;0.00;;;;;20.07;38.05;101011.38;5070241;27;45165;-69
2023/04/11 02:39:55;;;;;;;;;0.00;0.00;;;;;20.04;38.29;101003.59;5097474;27;45495;-69
2023/04/11 02:42:20;;;;;;;;;0.00;0.00;;;;;20.03;38.17;100998.38;5070267;27;45456;-69
2023/04/11 02:44:45;;;;;;;;;0.00;0.00;;;;;20.05;38.35;101005.28;5066034;28;75197;-69
2023/04/11 02:47:11;;;;;;;;;0.00;0.00;;;;;20.06;38.55;101009.66;5059073;27;63233;-69
2023/04/11 02:49:36;;;;;;;;;1.00;0.00;;;;;20.06;38.29;101006.13;5079637;27;45466;-69
2023/04/11 02:52:03;;;;;;;;;0.75;0.00;;;;;20.06;38.52;101001.69;5081455;27;45312;-69
2023/04/11 02:54:28;;;;;;;;;1.75;0.00;;;;;20.04;38.43;100989.44;5065785;27;48388;-69
2023/04/11 02:56:54;;;;;;;;;0.00;0.00;;;;;20.06;38.52;101003.47;5095031;27;72012;-69
2023/04/11 02:59:20;;;;;;;;;3.00;0.00;;;;;20.04;38.16;101003.59;5092977;27;45373;-69
2023/04/11 03:01:45;;;;;;;;;0.50;0.00;;;;;20.05;38.20;101018.59;5063139;27;45364;-69
2023/04/11 03:04:11;;;;;;;;;0.00;0.00;;;;;20.03;38.22;101014.31;5093317;27;73488;-69
2023/04/11 03:06:36;;;;;;;;;0.00;0.00;;;;;20.04;38.42;101021.31;5091352;27;45198;-69
2023/04/11 03:09:02;;;;;;;;;0.25;0.00;;;;;20.03;37.65;101024.94;5082904;27;45276;-69
2023/04/11 03:11:28;;;;;;;;;0.50;0.00;;;;;20.03;38.21;101020.47;5096583;27;45410;-69
2023/04/11 03:13:53;;;;;;;;;0.00;0.00;;;;;20.04;38.16;101021.31;5094376;27;72214;-69
2023/04/11 03:16:19;;;;;;;;;2.00;0.00;;;;;20.02;38.29;101028.53;5075512;27;69657;-69
2023/04/11 03:18:44;;;;;;;;;0.00;0.00;;;;;20.01;38.24;101021.50;5072791;28;45445;-69
2023/04/11 03:21:10;;;;;;;;;0.00;0.00;;;;;20.01;37.83;101027.69;5057157;27;45638;-69
2023/04/11 03:23:37;;;;;;;;;0.50;0.00;;;;;20.01;37.94;101035.66;5090844;27;45539;-69
2023/04/11 03:26:04;;;;;;;;;0.00;0.00;;;;;20.01;38.16;101033.00;5066710;28;45364;-69
2023/04/11 03:28:29;;;;;;;;;1.00;0.00;;;;;20.00;38.26;101039.25;5089225;27;45350;-69
2023/04/11 03:30:55;;;;;;;;;1.75;0.00;;;;;19.96;38.20;101026.28;5069379;27;45815;-69
2023/04/11 03:33:20;;;;;;;;;2.00;0.00;;;;;20.03;37.76;101040.91;5079740;27;47088;-69
2023/04/11 03:35:45;;;;;;;;;0.25;0.00;;;;;20.01;37.99;101041.00;5056092;27;45305;-69
2023/04/11 03:38:11;;;;;;;;;1.75;0.00;;;;;20.03;38.04;101046.22;5078225;28;47495;-69
2023/04/11 03:40:36;;;;;;;;;2.25;0.00;;;;;20.04;38.06;101035.50;5086288;27;45259;-69
2023/04/11 03:43:02;;;;;;;;;1.25;0.00;;;;;20.04;38.03;101039.94;5089701;27;46196;-69
2023/04/11 03:45:27;;;;;;;;;0.25;0.00;;;;;20.06;37.99;101046.88;5074380;28;45337;-69
2023/04/11 03:47:52;;;;;;;;;4.00;0.00;;;;;20.08;38.12;101046.78;5070062;27;45484;-69
2023/04/11 03:50:18;;;;;;;;;2.50;0.00;;;;;20.07;38.14;101051.22;5077614;27;68769;-69
2023/04/11 03:52:43;;;;;;;;;0.25;0.25;;;;;20.08;38.24;101047.63;5078905;27;47638;-69
2023/04/11 03:55:08;;;;;;;;;3.00;0.00;;;;;20.10;38.11;101055.50;5062604;27;69295;-69
2023/04/11 03:57:34;;;;;;;;;0.50;0.00;;;;;20.09;37.99;101054.63;5074680;28;45306;-69
2023/04/11 04:00:00;;;;;;;;;0.00;0.00;;;;;20.09;37.96;101056.44;5062170;27;45476;-69
2023/04/11 04:02:25;;;;;;;;;0.00;0.00;;;;;20.05;38.09;101037.19;5083266;27;45422;-69
2023/04/11 04:04:57;;;;;;;;;0.00;0.00;;;;;20.13;38.40;101062.41;5099643;27;56840;-69
2023/04/11 04:07:26;;;;;;;;;0.00;0.00;;;;;20.14;37.71;101064.13;5077271;27;45193;-69
2023/04/11 04:09:51;;;;;;;;;0.00;0.00;;;;;20.12;37.70;101068.69;5065029;27;45568;-69
2023/04/11 04:12:17;;;;;;;;;1.00;0.00;;;;;20.11;37.81;101057.19;5059121;27;45721;-69
2023/04/11 04:14:43;;;;;;;;;0.75;0.00;;;;;20.14;37.92;101061.47;5063952;27;45711;-69
2023/04/11 04:17:09;;;;;;;;;0.00;0.00;;;;;20.12;37.70;101064.22;5077877;27;45393;-69
2023/04/11 04:19:34;;;;;;;;;2.00;0.00;;;;;20.12;37.78;101060.72;5069813;27;45590;-69
2023/04/11 04:22:00;;;;;;;;;0.00;0.00;;;;;20.12;37.90;101060.72;5077280;27;46967;-69
2023/04/11 04:24:25;;;;;;;;;0.00;0.00;;;;;20.11;37.78;101059.84;5094731;27;45322;-69
2023/04/11 04:26:51;;;;;;;;;1.50;0.00;;;;;20.12;37.78;101060.72;5065856;28;67025;-69
2023/04/11 04:29:17;;;;;;;;;0.00;0.00;;;;;20.12;38.10;101050.94;5086617;27;45311;-69
2023/04/11 04:31:42;;;;;;;;;0.00;0.00;;;;;20.12;38.11;101063.38;5064100;27;47078;-69
2023/04/11 04:34:09;;;;;;;;;0.00;0.00;;;;;20.11;37.89;101065.16;5065853;27;45358;-69
2023/04/11 04:36:48;;;;;;;;;1.00;0.00;;;;;20.10;37.83;101074.94;5057743;28;45300;-69
2023/04/11 04:39:17;;;;;;;;;0.25;0.00;;;;;20.10;37.91;101068.78;5081051;27;45493;-69
2023/04/11 04:41:56;;;;;;;;;0.50;0.00;;;;;20.04;37.93;101051.44;5078070;27;45476;-69
2023/04/11 04:44:22;;;;;;;;;1.75;0.00;;;;;20.09;37.96;101067.06;5078187;27;45812;-69
2023/04/11 04:46:52;;;;;;;;;1.75;0.00;;;;;20.07;38.02;101063.66;5094398;27;45354;-69
2023/04/11 04:49:17;;;;;;;;;2.00;0.25;;;;;20.09;38.01;101072.38;5067771;27;45373;-69
2023/04/11 04:51:42;;;;;;;;;2.25;0.00;;;;;20.07;37.67;101067.16;5097351;27;73310;-69
2023/04/11 04:54:08;;;;;;;;;2.00;1.00;;;;;20.03;37.58;101065.66;5070787;27;45300;-69
2023/04/11 04:56:33;;;;;;;;;0.00;0.00;;;;;20.07;37.66;101075.13;5076156;27;45303;-69
2023/04/11 04:58:58;;;;;;;;;0.00;0.00;;;;;20.05;37.72;101077.03;5062314;27;45584;-69
2023/04/11 05:01:26;;;;;;;;;0.00;0.00;;;;;20.06;37.87;101080.53;5083915;27;47503;-69
2023/04/11 05:03:58;;;;;;;;;1.25;0.00;;;;;20.05;37.87;101082.34;5076965;27;45561;-69
2023/04/11 05:06:28;;;;;;;;;0.00;0.00;;;;;20.03;37.58;101081.59;5089018;27;45306;-69
2023/04/11 05:08:55;;;;;;;;;0.00;0.00;;;;;20.06;37.79;101085.84;5072855;27;45337;-69
2023/04/11 05:11:20;;;;;;;;;0.00;0.00;;;;;20.07;37.58;101087.56;5073462;27;46162;-69
2023/04/11 05:13:45;;;;;;;;;0.00;0.00;;;;;20.05;37.90;101095.63;5059624;28;45368;-69
2023/04/11 05:16:11;;;;;;;;;0.00;0.00;;;;;20.07;38.17;101100.84;5064775;27;70804;-69
2023/04/11 05:18:36;;;;;;;;;0.00;0.00;;;;;20.06;37.75;101099.13;5080077;28;45280;-69
2023/04/11 05:21:03;;;;;;;;;0.00;0.00;;;;;20.06;37.90;101096.47;5069289;27;72170;-69
2023/04/11 05:23:28;;;;;;;;;0.25;0.00;;;;;20.07;37.53;101103.50;5080761;27;45324;-69
2023/04/11 05:25:54;;;;;;;;;0.00;0.00;;;;;20.10;38.00;101109.50;5068560;27;65021;-69
2023/04/11 05:28:19;;;;;;;;;0.00;0.00;;;;;20.08;38.04;101099.91;5096833;27;45323;-69
2023/04/11 05:30:45;;;;;;;;;1.00;0.00;;;;;20.07;37.72;101096.38;5083929;27;46651;-69
2023/04/11 05:33:11;;;;;;;;;0.00;0.00;;;;;20.12;38.04;101096.13;5062500;27;71343;-70
2023/04/11 05:35:37;;;;;;;;;0.00;0.00;;;;;20.14;37.88;101104.84;5084175;27;45374;-70
2023/04/11 05:38:02;;;;;;;;;0.00;0.00;;;;;20.13;37.45;101107.59;5092499;27;68892;-69
2023/04/11 05:40:27;;;;;;;;;1.75;0.00;;;;;20.15;38.09;101108.34;5079036;27;45512;-69
2023/04/11 05:42:53;;;;;;;;;0.00;0.00;;;;;20.14;37.64;101109.31;5078465;27;74741;-69
2023/04/11 05:45:18;;;;;;;;;0.00;0.00;;;;;20.12;37.76;101106.75;5065195;27;49053;-69
2023/04/11 05:47:43;;;;;;;;;3.00;0.00;;;;;20.15;37.67;101109.22;5088486;27;45317;-69
2023/04/11 05:50:09;;;;;;;;;1.00;0.00;;;;;20.14;37.87;101106.66;5091288;27;67511;-69
2023/04/11 05:52:35;;;;;;;;;0.00;0.00;;;;;20.14;37.73;101104.84;5060424;27;45473;-69
2023/04/11 05:55:00;;;;;;;;;0.00;0.00;;;;;20.16;37.58;101110.06;5102367;27;45351;-69
2023/04/11 05:57:26;;;;;;;;;2.50;0.50;;;;;20.17;37.74;101111.75;5087474;27;45321;-70
2023/04/11 05:59:51;;;;;;;;;0.00;0.00;;;;;20.17;38.09;101111.75;5085516;27;71591;-69
2023/04/11 06:02:17;;;;;;;;;2.00;0.00;;;;;20.18;37.72;101114.31;5070613;27;45488;-69
2023/04/11 06:04:42;;;;;;;;;2.25;0.00;;;;;20.17;37.76;101111.75;5093377;27;45315;-69
2023/04/11 06:07:08;;;;;;;;;1.50;0.00;;;;;20.17;37.74;101107.31;5072694;27;62934;-69
2023/04/11 06:09:33;;;;;;;;;3.00;2.00;;;;;20.18;37.98;101105.50;5076472;27;64534;-69
2023/04/11 06:12:00;;;;;;;;;1.50;0.00;;;;;20.19;37.95;101112.53;5096791;27;45440;-69
2023/04/11 06:14:25;;;;;;;;;3.50;0.00;;;;;20.17;37.65;101117.94;5096437;27;45445;-69
2023/04/11 06:16:50;;;;;;;;;1.25;0.00;;;;;20.14;37.67;101114.63;5068906;27;65109;-69
2023/04/11 06:19:16;;;;;;;;;1.50;0.00;;;;;20.17;37.88;101128.56;5065356;27;72639;-69
2023/04/11 06:21:41;;;;;;;;;0.25;0.25;;;;;20.17;37.68;101127.69;5067646;27;50588;-69
2023/04/11 06:24:08;;;;;;;;;0.00;0.00;;;;;20.16;37.65;101131.31;5099822;27;45465;-69
2023/04/11 06:26:34;;;;;;;;;1.00;1.00;;;;;20.13;37.61;101118.22;5073201;27;45505;-69
2023/04/11 06:29:01;;;;;;;;;4.00;1.00;;;;;20.17;37.75;101127.69;5083124;27;46312;-69
2023/04/11 06:31:26;;;;;;;;;0.00;0.00;;;;;20.16;37.37;101134.81;5087698;27;45403;-69
2023/04/11 06:33:51;;;;;;;;;1.00;0.00;;;;;20.16;37.63;101131.31;5110049;27;45186;-69
2023/04/11 06:36:17;;;;;;;;;0.00;0.00;;;;;20.16;37.85;101136.63;5083038;27;45283;-69
2023/04/11 06:38:42;;;;;;;;;1.00;0.00;;;;;20.16;37.52;101142.81;5069822;27;45431;-69
2023/04/11 06:41:08;;;;;;;;;0.25;0.00;;;;;20.15;37.60;101142.88;5077841;27;45426;-69
2023/04/11 06:43:33;;;;;;;;;1.00;0.00;;;;;20.16;37.58;101141.97;5094716;27;57195;-69
2023/04/11 06:45:59;;;;;;;;;1.50;0.00;;;;;20.15;38.15;101143.75;5070837;27;69034;-69
2023/04/11 06:48:24;;;;;;;;;2.00;0.00;;;;;20.15;37.71;101150.88;5059205;27;47969;-69
2023/04/11 06:50:50;;;;;;;;;0.50;0.25;;;;;20.15;37.92;101162.38;5072535;27;45213;-69
2023/04/11 06:53:15;;;;;;;;;1.00;1.00;;;;;20.16;37.60;101163.22;5070147;28;68036;-69
2023/04/11 06:55:40;;;;;;;;;0.00;0.00;;;;;20.13;37.28;101153.59;5076312;27;69519;-69
2023/04/11 06:58:06;;;;;;;;;0.00;0.00;;;;;20.14;37.62;101158.00;5080245;27;46986;-69
2023/04/11 07:00:31;;;;;;;;;0.00;0.00;;;;;20.14;37.81;101163.31;5093347;27;72129;-69
2023/04/11 07:02:57;;;;;;;;;0.00;0.00;;;;;20.10;37.50;101164.44;5054628;28;58286;-69
2023/04/11 07:05:22;;;;;;;;;0.00;0.00;;;;;20.14;37.55;101178.41;5057116;27;45506;-69
2023/04/11 07:07:47;;;;;;;;;3.00;1.00;;;;;20.13;37.68;101171.38;5064629;27;73343;-69
2023/04/11 07:10:13;;;;;;;;;4.75;1.75;;;;;20.12;37.76;101178.50;5076849;27;45343;-69
2023/04/11 07:12:38;;;;;;;;;1.75;1.00;;;;;20.12;37.59;101181.16;5087140;27;65484;-69
2023/04/11 07:15:04;;;;;;;;;0.00;0.00;;;;;20.10;37.94;101180.38;5077371;27;60884;-69
2023/04/11 07:17:30;;;;;;;;;1.75;1.00;;;;;20.11;37.41;101182.06;5100593;27;45719;-69
2023/04/11 07:19:55;;;;;;;;;0.50;0.50;;;;;20.11;37.68;101182.06;5068428;27;45478;-69
2023/04/11 07:22:22;;;;;;;;;2.50;1.00;;;;;20.13;37.54;101180.19;5056808;27;45722;-69
2023/04/11 07:24:54;;;;;;;;;0.00;0.00;;;;;20.13;37.69;101182.00;5053835;27;45499;-69
2023/04/11 07:27:20;;;;;;;;;0.25;0.00;;;;;20.12;37.56;101169.66;5080657;27;45422;-69
2023/04/11 07:29:45;;;;;;;;;2.00;0.00;;;;;20.13;37.83;101174.03;5066969;27;45413;-69
2023/04/11 07:32:11;;;;;;;;;1.00;0.00;;;;;20.12;37.58;101162.53;5098772;27;46038;-69
2023/04/11 07:34:37;;;;;;;;;0.75;0.00;;;;;20.09;37.80;101158.25;5074461;27;72076;-69
2023/04/11 07:37:02;;;;;;;;;2.00;1.00;;;;;20.16;37.94;101163.22;5075134;27;45260;-69
2023/04/11 07:39:28;;;;;;;;;0.50;0.00;;;;;20.15;37.53;101169.47;5085287;27;45220;-69
2023/04/11 07:41:53;;;;;;;;;0.75;0.75;;;;;20.16;37.59;101169.38;5075871;27;45450;-69
2023/04/11 07:44:18;;;;;;;;;0.75;0.75;;;;;20.17;37.27;101167.56;5069815;27;72018;-69
2023/04/11 07:46:44;;;;;;;;;2.00;0.00;;;;;20.20;37.72;101167.38;5088103;27;73929;-69
2023/04/11 07:49:09;;;;;;;;;2.50;0.00;;;;;20.20;37.90;101172.69;5074304;27;45528;-69
2023/04/11 07:51:34;;;;;;;;;1.75;0.50;;;;;20.20;37.76;101180.66;5075856;27;52628;-69
2023/04/11 07:54:00;;;;;;;;;1.25;0.50;;;;;20.21;37.85;101163.78;5099598;27;60088;-69
2023/04/11 07:56:25;;;;;;;;;2.00;0.75;;;;;20.20;37.66;101154.97;5088460;27;46040;-69
2023/04/11 07:58:51;;;;;;;;;2.50;0.00;;;;;20.23;37.50;101157.41;5071986;27;45298;-69
2023/04/11 08:01:21;;;;;;;;;0.00;0.00;;;;;20.25;37.81;101154.69;5081278;27;63528;-69
2023/04/11 08:03:46;;;;;;;;;1.00;0.25;;;;;20.22;37.77;101144.22;5055566;27;45453;-69
2023/04/11 08:06:12;;;;;;;;;2.00;0.00;;;;;20.26;37.66;101153.75;5080680;27;47039;-69
2023/04/11 08:08:37;;;;;;;;;0.75;0.25;;;;;20.25;37.73;101162.66;5085040;27;71717;-69
2023/04/11 08:11:02;;;;;;;;;3.00;0.00;;;;;20.25;37.78;101165.31;5069817;27;59167;-69
2023/04/11 08:13:28;;;;;;;;;2.00;0.00;;;;;20.27;37.37;101176.69;5060739;28;69521;-69
2023/04/11 08:15:53;;;;;;;;;0.00;0.00;;;;;20.25;37.44;101176.78;5073435;27;48717;-69
2023/04/11 08:18:20;;;;;;;;;1.00;0.00;;;;;20.26;37.83;101175.00;5068474;28;63652;-69
2023/04/11 08:20:46;;;;;;;;;0.50;0.00;;;;;20.28;37.81;101181.91;5079698;28;45165;-69
2023/04/11 08:23:12;;;;;;;;;2.00;0.50;;;;;20.29;37.62;101186.31;5076644;27;45530;-69
2023/04/11 08:25:38;;;;;;;;;2.00;0.00;;;;;20.29;37.74;101180.09;5076387;27;71701;-69
2023/04/11 08:28:04;;;;;;;;;1.50;1.00;;;;;20.26;37.52;101167.88;5056056;28;47333;-69
2023/04/11 08:30:29;;;;;;;;;0.00;0.00;;;;;20.30;37.54;101172.03;5065284;28;45336;-69
2023/04/11 08:32:54;;;;;;;;;1.00;0.00;;;;;20.28;37.75;101175.75;5065920;28;64973;-69
2023/04/11 08:35:20;;;;;;;;;0.50;0.00;;;;;20.29;37.64;101173.00;5081982;27;73439;-69
2023/04/11 08:37:45;;;;;;;;;2.75;1.00;;;;;20.29;37.65;101177.44;5056343;28;45428;-68
2023/04/11 08:40:11;;;;;;;;;0.00;0.00;;;;;20.28;37.45;101175.75;5036960;28;59434;-69
2023/04/11 08:42:37;;;;;;;;;1.50;1.00;;;;;20.28;37.29;101173.09;5066282;28;45485;-69
2023/04/11 08:45:04;;;;;;;;;1.00;0.50;;;;;20.30;37.60;101181.84;5056774;28;59036;-69
2023/04/11 08:47:30;;;;;;;;;2.00;0.50;;;;;20.28;37.55;101171.28;5058900;28;45512;-69
2023/04/11 08:49:55;;;;;;;;;0.50;0.00;;;;;20.29;37.46;101177.44;5057674;28;45422;-69
2023/04/11 08:52:22;;;;;;;;;2.00;0.50;;;;;20.29;37.57;101172.13;5060616;28;45345;-69
2023/04/11 08:54:48;;;;;;;;;0.25;0.00;;;;;20.29;37.95;101186.31;5063023;28;47951;-69
2023/04/11 08:57:24;;;;;;;;;2.25;0.75;;;;;20.29;37.44;101185.41;5057113;28;45678;-69
2023/04/11 08:59:50;;;;;;;;;1.50;1.00;;;;;20.32;37.47;101200.34;5053054;28;45376;-68
2023/04/11 09:02:15;;;;;;;;;1.75;0.00;;;;;20.30;37.52;101205.75;5043938;28;45507;-69
2023/04/11 09:04:41;;;;;;;;;1.00;0.75;;;;;20.29;37.68;101188.97;5070801;28;66606;-68
2023/04/11 09:07:07;;;;;;;;;1.00;1.00;;;;;20.32;37.65;101187.06;5053072;28;45656;-68
2023/04/11 09:09:35;;;;;;;;;1.75;0.50;;;;;20.32;37.57;101174.63;5064118;28;45330;-68
2023/04/11 09:12:01;;;;;;;;;1.75;1.00;;;;;20.33;37.37;101178.13;5060553;28;45495;-68
2023/04/11 09:14:27;;;;;;;;;0.25;0.00;;;;;20.32;37.61;101182.59;5048508;28;46309;-69
2023/04/11 09:17:13;;;;;;;;;0.00;0.00;;;;;20.36;37.63;101183.25;5046525;28;45336;-69
2023/04/11 09:19:40;;;;;;;;;1.75;1.00;;;;;20.36;37.35;101184.13;5067242;28;45304;-68
2023/04/11 09:22:06;;;;;;;;;2.25;1.00;;;;;20.36;37.55;101184.13;5051953;28;45439;-69
2023/04/11 09:24:32;;;;;;;;;2.50;0.00;;;;;20.39;37.46;101186.59;5065302;28;45169;-70
2023/04/11 09:27:16;;;;;;;;;1.00;0.00;;;;;20.38;37.80;101184.00;5067705;28;45242;-68
2023/04/11 09:29:44;;;;;;;;;2.00;0.00;;;;;20.38;37.39;101179.56;5049852;28;45594;-69
2023/04/11 09:32:34;;;;;;;;;1.50;0.00;;;;;20.45;37.68;101178.25;5052464;28;45854;-68
2023/04/11 09:35:10;;;;;;;;;0.50;0.50;;;;;20.44;37.57;101173.88;5059459;28;45492;-68
2023/04/11 09:37:56;;;;;;;;;0.00;0.00;;;;;20.46;37.58;101173.78;5052556;27;45765;-69
2023/04/11 09:40:23;;;;;;;;;0.50;0.50;;;;;20.48;37.41;101180.69;5070932;27;45493;-68
2023/04/11 09:42:56;;;;;;;;;2.00;0.00;;;;;20.47;37.59;101173.69;5066242;27;45482;-68
2023/04/11 09:45:22;;;;;;;;;0.50;0.00;;;;;20.49;37.30;101168.28;5068583;27;46245;-68
2023/04/11 09:47:49;;;;;;;;;2.00;0.00;;;;;20.54;37.39;101170.63;5069762;28;46068;-69
2023/04/11 09:50:15;;;;;;;;;1.25;1.00;;;;;20.54;37.52;101165.31;5072162;27;45300;-68
2023/04/11 09:52:42;;;;;;;;;1.25;0.00;;;;;20.55;37.84;101167.03;5095689;27;45233;-69
2023/04/11 09:55:12;;;;;;;;;0.25;0.25;;;;;20.58;37.38;101174.81;5076424;27;46544;-69
2023/04/11 09:57:40;;;;;;;;;1.75;0.00;;;;;20.61;37.41;101174.63;5072941;27;45370;-69
2023/04/11 10:00:13;;;;;;;;;4.50;0.75;;;;;20.61;37.57;101180.84;5069271;28;45360;-77
2023/04/11 10:02:39;;;;;;;;;3.00;0.75;;;;;20.63;37.56;101178.09;5074509;27;45340;-69
2023/04/11 10:05:06;;;;;;;;;1.50;0.00;;;;;20.63;37.54;101176.28;5054476;28;47529;-70
2023/04/11 10:07:33;;;;;;;;;0.00;0.00;;;;;20.63;37.75;101176.28;5063598;28;45653;-70
2023/04/11 10:09:58;;;;;;;;;1.00;0.25;;;;;20.70;37.31;101178.53;5065003;27;45580;-71
2023/04/11 10:12:34;;;;;;;;;2.75;0.00;;;;;20.67;37.78;101179.59;5068589;28;45352;-71
2023/04/11 10:15:08;;;;;;;;;0.25;0.00;;;;;20.72;37.45;101179.31;5074761;27;45577;-72
2023/04/11 10:17:35;;;;;;;;;7.00;4.25;;;;;20.74;37.54;101188.91;5082798;27;46994;-71
2023/04/11 10:20:00;;;;;;;;;29.25;18.00;;;;;20.77;37.78;101177.19;5065472;27;45312;-71
2023/04/11 10:22:45;;;;;;;;;65.00;40.75;;;;;20.78;38.02;101166.47;5067425;27;67297;-75
2023/04/11 10:25:18;;;;;;;;;63.50;38.50;;;;;20.77;37.85;101159.47;5083396;27;46164;-73
2023/04/11 10:28:09;;;;;;;;;73.25;44.50;;;;;20.80;38.37;101151.25;5092469;27;45926;-66
2023/04/11 10:30:40;;;;;;;;;69.25;44.50;;;;;20.84;38.50;101150.13;5094719;27;45216;-67
2023/04/11 10:33:14;;;;;;;;;60.75;41.25;;;;;20.84;38.83;101152.78;5081425;27;45497;-66
2023/04/11 10:36:04;;;;;;;;;66.75;42.50;;;;;20.91;38.96;101163.03;5067896;27;45479;-67
2023/04/11 10:38:35;;;;;;;;;57.75;35.75;;;;;20.93;39.59;101155.81;5085867;27;45450;-68
2023/04/11 10:41:18;;;;;;;;;56.50;32.50;;;;;20.92;39.87;101151.44;5086925;27;45525;-67
2023/04/11 10:43:45;;;;;;;;;47.75;32.25;;;;;20.98;39.53;101153.72;5079701;27;45488;-69
2023/04/11 10:46:21;;;;;;;;;53.25;35.00;;;;;20.96;39.63;101132.50;5066867;28;45514;-69
2023/04/11 10:49:03;;;;;;;;;52.50;33.00;;;;;21.01;40.35;101133.06;5094415;27;46104;-72
2023/04/11 10:51:30;;;;;;;;;48.75;29.75;;;;;21.02;40.24;101125.97;5075514;27;45513;-73
2023/04/11 10:53:59;;;;;;;;;44.50;30.25;;;;;21.04;40.75;101134.69;5081405;27;45557;-73
2023/04/11 10:56:44;;;;;;;;;39.75;29.50;;;;;21.09;40.98;101145.91;5074386;27;45564;-72
2023/04/11 10:59:31;;;;;;;;;41.25;26.25;;;;;21.11;40.81;101141.34;5079900;27;45485;-73
2023/04/11 11:01:58;;;;;;;;;51.50;29.25;;;;;21.10;41.32;101136.94;5096530;27;45459;-74
2023/04/11 11:04:34;;;;;;;;;48.75;28.75;;;;;21.15;40.81;101134.00;5074398;27;45329;-72
2023/04/11 11:07:03;;;;;;;;;41.75;29.25;;;;;21.16;40.97;101133.91;5056139;28;48008;-70
2023/04/11 11:09:29;;;;;;;;;46.00;28.50;;;;;21.13;41.56;101111.97;5047168;27;45318;-70
2023/04/11 11:12:04;;;;;;;;;35.75;23.25;;;;;21.18;41.37;101102.72;5068071;27;45253;-70
2023/04/11 11:14:29;;;;;;;;;35.00;20.75;;;;;21.20;41.54;101105.28;5084031;27;45701;-71
2023/04/11 11:16:55;;;;;;;;;37.00;23.00;;;;;21.18;41.65;101088.56;5081774;27;72872;-73
2023/04/11 11:19:20;;;;;;;;;35.75;22.50;;;;;21.19;41.39;101088.44;5068729;27;61078;-76
2023/04/11 11:21:45;;;;;;;;;30.00;21.25;;;;;21.20;40.87;101091.97;5090049;27;45547;-70
2023/04/11 11:24:11;;;;;;;;;25.00;15.50;;;;;21.21;41.56;101081.22;5077303;27;56598;-70